sensor_id;sensor_type;location;lat;lon;timestamp;pressure;altitude;pressure_sealevel;temperature;humidity
61478;BME280;47345;52.334;10.392;2023-12-20T00:00:54;100342.01;;;7.31;100.00
61478;BME280;47345;52.334;10.392;2023-12-20T00:03:24;100344.98;;;7.32;100.00
61478;BME280;47345;52.334;10.392;2023-12-20T00:05:55;100342.39;;;7.32;100.00
61478;BME280;47345;52.334;10.392;2023-12-20T00:08:25;100338.21;;;7.33;100.00
61478;BME280;47345;52.334;10.392;2023-12-20T00:10:56;100333.27;;;7.32;100.00
61478;BME280;47345;52.334;10.392;2023-12-20T00:13:26;100335.09;;;7.30;100.00
61478;BME280;47345;52.334;10.392;2023-12-20T00:15:56;100344.09;;;7.31;100.00
61478;BME280;47345;52.334;10.392;2023-12-20T00:18:27;100341.70;;;7.29;100.00
61478;BME280;47345;52.334;10.392;2023-12-20T00:20:57;100350.79;;;7.26;100.00
61478;BME280;47345;52.334;10.392;2023-12-20T00:23:28;100346.48;;;7.23;100.00
61478;BME280;47345;52.334;10.392;2023-12-20T00:25:58;100344.52;;;7.18;100.00
61478;BME280;47345;52.334;10.392;2023-12-20T00:28:29;100345.53;;;7.10;99.97
61478;BME280;47345;52.334;10.392;2023-12-20T00:30:59;100342.85;;;7.06;99.60
61478;BME280;47345;52.334;10.392;2023-12-20T00:33:30;100342.52;;;6.98;99.35
61478;BME280;47345;52.334;10.392;2023-12-20T00:36:00;100353.09;;;6.93;98.76
61478;BME280;47345;52.334;10.392;2023-12-20T00:38:31;100354.98;;;6.87;98.76
61478;BME280;47345;52.334;10.392;2023-12-20T00:41:01;100346.61;;;6.80;98.51
61478;BME280;47345;52.334;10.392;2023-12-20T00:43:32;100346.83;;;6.74;98.31
61478;BME280;47345;52.334;10.392;2023-12-20T00:46:03;100345.92;;;6.68;98.10
61478;BME280;47345;52.334;10.392;2023-12-20T00:48:33;100352.18;;;6.63;97.92
61478;BME280;47345;52.334;10.392;2023-12-20T00:51:05;100356.13;;;6.57;97.69
61478;BME280;47345;52.334;10.392;2023-12-20T00:53:36;100357.36;;;6.53;97.80
61478;BME280;47345;52.334;10.392;2023-12-20T00:56:06;100358.02;;;6.47;97.66
61478;BME280;47345;52.334;10.392;2023-12-20T00:58:37;100362.31;;;6.43;97.80
61478;BME280;47345;52.334;10.392;2023-12-20T01:01:07;100371.05;;;6.40;98.03
61478;BME280;47345;52.334;10.392;2023-12-20T01:03:38;100374.23;;;6.38;98.08
61478;BME280;47345;52.334;10.392;2023-12-20T01:06:09;100375.64;;;6.37;98.40
61478;BME280;47345;52.334;10.392;2023-12-20T01:08:39;100375.56;;;6.37;98.57
61478;BME280;47345;52.334;10.392;2023-12-20T01:11:10;100365.84;;;6.38;98.54
61478;BME280;47345;52.334;10.392;2023-12-20T01:13:40;100362.12;;;6.39;98.82
61478;BME280;47345;52.334;10.392;2023-12-20T01:16:12;100362.42;;;6.40;99.15
61478;BME280;47345;52.334;10.392;2023-12-20T01:18:42;100363.98;;;6.40;99.34
61478;BME280;47345;52.334;10.392;2023-12-20T01:21:13;100358.70;;;6.39;99.64
61478;BME280;47345;52.334;10.392;2023-12-20T01:23:44;100359.42;;;6.37;99.42
61478;BME280;47345;52.334;10.392;2023-12-20T01:26:15;100369.40;;;6.34;99.23
61478;BME280;47345;52.334;10.392;2023-12-20T01:28:46;100363.86;;;6.31;99.16
61478;BME280;47345;52.334;10.392;2023-12-20T01:31:16;100359.26;;;6.27;98.94
61478;BME280;47345;52.334;10.392;2023-12-20T01:33:47;100360.20;;;6.22;98.88
61478;BME280;47345;52.334;10.392;2023-12-20T01:36:18;100366.70;;;6.18;98.88
61478;BME280;47345;52.334;10.392;2023-12-20T01:38:48;100366.71;;;6.13;98.77
61478;BME280;47345;52.334;10.392;2023-12-20T01:41:19;100365.08;;;6.09;98.67
61478;BME280;47345;52.334;10.392;2023-12-20T01:43:49;100359.73;;;6.05;98.73
61478;BME280;47345;52.334;10.392;2023-12-20T01:46:21;100363.98;;;6.01;98.85
61478;BME280;47345;52.334;10.392;2023-12-20T01:48:52;100366.52;;;5.98;98.76
61478;BME280;47345;52.334;10.392;2023-12-20T01:51:23;100366.41;;;5.95;98.64
61478;BME280;47345;52.334;10.392;2023-12-20T01:53:58;100375.35;;;5.92;98.65
61478;BME280;47345;52.334;10.392;2023-12-20T01:56:30;100374.77;;;5.89;98.64
61478;BME280;47345;52.334;10.392;2023-12-20T01:59:01;100371.52;;;5.88;98.66
61478;BME280;47345;52.334;10.392;2023-12-20T02:01:33;100374.30;;;5.86;98.60
61478;BME280;47345;52.334;10.392;2023-12-20T02:04:05;100375.88;;;5.85;98.67
61478;BME280;47345;52.334;10.392;2023-12-20T02:06:36;100384.53;;;5.85;98.90
61478;BME280;47345;52.334;10.392;2023-12-20T02:09:08;100381.46;;;5.87;98.85
61478;BME280;47345;52.334;10.392;2023-12-20T02:11:39;100380.23;;;5.86;98.77
61478;BME280;47345;52.334;10.392;2023-12-20T02:14:10;100373.31;;;5.86;98.73
61478;BME280;47345;52.334;10.392;2023-12-20T02:16:40;100379.54;;;5.86;98.64
61478;BME280;47345;52.334;10.392;2023-12-20T02:19:14;100386.23;;;5.84;98.31
61478;BME280;47345;52.334;10.392;2023-12-20T02:21:45;100382.87;;;5.82;98.34
61478;BME280;47345;52.334;10.392;2023-12-20T02:24:15;100386.15;;;5.82;98.35
61478;BME280;47345;52.334;10.392;2023-12-20T02:26:47;100385.19;;;5.81;98.19
61478;BME280;47345;52.334;10.392;2023-12-20T02:29:17;100389.38;;;5.80;97.93
61478;BME280;47345;52.334;10.392;2023-12-20T02:31:48;100384.39;;;5.76;97.68
61478;BME280;47345;52.334;10.392;2023-12-20T02:34:19;100382.27;;;5.71;97.62
61478;BME280;47345;52.334;10.392;2023-12-20T02:36:50;100376.20;;;5.67;97.66
61478;BME280;47345;52.334;10.392;2023-12-20T02:39:21;100370.02;;;5.63;97.48
61478;BME280;47345;52.334;10.392;2023-12-20T02:41:52;100368.75;;;5.58;97.64
61478;BME280;47345;52.334;10.392;2023-12-20T02:44:23;100364.20;;;5.54;97.56
61478;BME280;47345;52.334;10.392;2023-12-20T02:46:53;100357.52;;;5.49;97.45
61478;BME280;47345;52.334;10.392;2023-12-20T02:49:24;100357.55;;;5.45;97.59
61478;BME280;47345;52.334;10.392;2023-12-20T02:51:54;100355.17;;;5.43;97.65
61478;BME280;47345;52.334;10.392;2023-12-20T02:54:25;100355.11;;;5.42;97.81
61478;BME280;47345;52.334;10.392;2023-12-20T02:56:55;100359.79;;;5.42;97.71
61478;BME280;47345;52.334;10.392;2023-12-20T02:59:26;100364.78;;;5.41;97.58
61478;BME280;47345;52.334;10.392;2023-12-20T03:01:56;100363.76;;;5.39;97.49
61478;BME280;47345;52.334;10.392;2023-12-20T03:04:27;100355.40;;;5.36;97.46
61478;BME280;47345;52.334;10.392;2023-12-20T03:06:57;100353.21;;;5.33;97.25
61478;BME280;47345;52.334;10.392;2023-12-20T03:09:28;100348.49;;;5.30;97.26
61478;BME280;47345;52.334;10.392;2023-12-20T03:12:07;100347.02;;;5.29;97.27
61478;BME280;47345;52.334;10.392;2023-12-20T03:14:38;100347.62;;;5.27;97.22
61478;BME280;47345;52.334;10.392;2023-12-20T03:17:08;100347.96;;;5.27;97.21
61478;BME280;47345;52.334;10.392;2023-12-20T03:19:38;100345.01;;;5.28;96.99
61478;BME280;47345;52.334;10.392;2023-12-20T03:22:09;100345.96;;;5.27;96.89
61478;BME280;47345;52.334;10.392;2023-12-20T03:24:39;100341.57;;;5.25;96.67
61478;BME280;47345;52.334;10.392;2023-12-20T03:27:10;100340.98;;;5.24;96.62
61478;BME280;47345;52.334;10.392;2023-12-20T03:29:40;100340.88;;;5.23;96.65
61478;BME280;47345;52.334;10.392;2023-12-20T03:32:10;100339.72;;;5.22;96.41
61478;BME280;47345;52.334;10.392;2023-12-20T03:34:41;100339.75;;;5.19;96.38
61478;BME280;47345;52.334;10.392;2023-12-20T03:37:11;100327.40;;;5.16;96.16
61478;BME280;47345;52.334;10.392;2023-12-20T03:39:42;100320.50;;;5.13;96.24
61478;BME280;47345;52.334;10.392;2023-12-20T03:42:12;100317.65;;;5.10;95.97
61478;BME280;47345;52.334;10.392;2023-12-20T03:44:43;100316.22;;;5.07;96.06
61478;BME280;47345;52.334;10.392;2023-12-20T03:47:13;100306.95;;;5.04;95.95
61478;BME280;47345;52.334;10.392;2023-12-20T03:49:44;100298.92;;;5.00;95.94
61478;BME280;47345;52.334;10.392;2023-12-20T03:52:14;100301.31;;;4.96;96.04
61478;BME280;47345;52.334;10.392;2023-12-20T03:54:45;100296.15;;;4.94;95.90
61478;BME280;47345;52.334;10.392;2023-12-20T03:57:16;100295.29;;;4.91;95.89
61478;BME280;47345;52.334;10.392;2023-12-20T03:59:46;100294.60;;;4.87;95.58
61478;BME280;47345;52.334;10.392;2023-12-20T04:02:17;100300.73;;;4.84;95.60
61478;BME280;47345;52.334;10.392;2023-12-20T04:04:48;100305.45;;;4.81;95.50
61478;BME280;47345;52.334;10.392;2023-12-20T04:07:18;100305.55;;;4.77;95.31
61478;BME280;47345;52.334;10.392;2023-12-20T04:09:50;100306.38;;;4.73;95.33
61478;BME280;47345;52.334;10.392;2023-12-20T04:12:20;100306.40;;;4.70;95.19
61478;BME280;47345;52.334;10.392;2023-12-20T04:14:50;100298.89;;;4.66;95.16
61478;BME280;47345;52.334;10.392;2023-12-20T04:17:21;100300.17;;;4.63;94.97
61478;BME280;47345;52.334;10.392;2023-12-20T04:19:53;100294.03;;;4.58;94.81
61478;BME280;47345;52.334;10.392;2023-12-20T04:22:24;100296.70;;;4.54;94.76
61478;BME280;47345;52.334;10.392;2023-12-20T04:24:54;100290.46;;;4.50;94.80
61478;BME280;47345;52.334;10.392;2023-12-20T04:27:25;100285.54;;;4.47;94.76
61478;BME280;47345;52.334;10.392;2023-12-20T04:29:55;100287.45;;;4.45;94.77
61478;BME280;47345;52.334;10.392;2023-12-20T04:32:25;100294.88;;;4.43;94.80
61478;BME280;47345;52.334;10.392;2023-12-20T04:34:56;100299.08;;;4.42;94.74
61478;BME280;47345;52.334;10.392;2023-12-20T04:37:26;100295.89;;;4.43;94.81
61478;BME280;47345;52.334;10.392;2023-12-20T04:39:57;100294.48;;;4.45;94.76
61478;BME280;47345;52.334;10.392;2023-12-20T04:42:27;100297.77;;;4.46;94.72
61478;BME280;47345;52.334;10.392;2023-12-20T04:44:57;100293.79;;;4.48;94.63
61478;BME280;47345;52.334;10.392;2023-12-20T04:47:28;100293.27;;;4.51;94.86
61478;BME280;47345;52.334;10.392;2023-12-20T04:49:58;100291.59;;;4.56;94.83
61478;BME280;47345;52.334;10.392;2023-12-20T04:52:29;100288.64;;;4.61;94.93
61478;BME280;47345;52.334;10.392;2023-12-20T04:55:00;100291.60;;;4.68;94.87
61478;BME280;47345;52.334;10.392;2023-12-20T04:57:30;100282.59;;;4.74;94.76
61478;BME280;47345;52.334;10.392;2023-12-20T05:00:01;100273.42;;;4.80;94.61
61478;BME280;47345;52.334;10.392;2023-12-20T05:02:32;100270.73;;;4.86;94.57
61478;BME280;47345;52.334;10.392;2023-12-20T05:05:03;100266.79;;;4.92;94.36
61478;BME280;47345;52.334;10.392;2023-12-20T05:07:33;100267.11;;;4.95;94.16
61478;BME280;47345;52.334;10.392;2023-12-20T05:10:06;100263.20;;;5.01;94.06
61478;BME280;47345;52.334;10.392;2023-12-20T05:12:37;100269.48;;;5.07;94.05
61478;BME280;47345;52.334;10.392;2023-12-20T05:15:09;100265.33;;;5.13;93.81
61478;BME280;47345;52.334;10.392;2023-12-20T05:17:39;100269.07;;;5.20;93.67
61478;BME280;47345;52.334;10.392;2023-12-20T05:20:10;100277.91;;;5.25;93.48
61478;BME280;47345;52.334;10.392;2023-12-20T05:22:42;100274.88;;;5.29;93.25
61478;BME280;47345;52.334;10.392;2023-12-20T05:25:14;100277.93;;;5.36;93.27
61478;BME280;47345;52.334;10.392;2023-12-20T05:27:45;100276.25;;;5.40;93.05
61478;BME280;47345;52.334;10.392;2023-12-20T05:30:16;100273.64;;;5.44;92.95
61478;BME280;47345;52.334;10.392;2023-12-20T05:32:46;100271.07;;;5.47;92.68
61478;BME280;47345;52.334;10.392;2023-12-20T05:35:17;100263.73;;;5.51;92.54
61478;BME280;47345;52.334;10.392;2023-12-20T05:37:48;100260.91;;;5.52;92.63
61478;BME280;47345;52.334;10.392;2023-12-20T05:40:18;100263.03;;;5.57;92.55
61478;BME280;47345;52.334;10.392;2023-12-20T05:42:49;100263.45;;;5.59;92.39
61478;BME280;47345;52.334;10.392;2023-12-20T05:45:20;100268.34;;;5.61;92.37
61478;BME280;47345;52.334;10.392;2023-12-20T05:47:50;100264.13;;;5.63;92.21
61478;BME280;47345;52.334;10.392;2023-12-20T05:50:21;100262.51;;;5.65;92.23
61478;BME280;47345;52.334;10.392;2023-12-20T05:52:51;100260.15;;;5.66;92.13
61478;BME280;47345;52.334;10.392;2023-12-20T05:55:23;100258.84;;;5.68;92.15
61478;BME280;47345;52.334;10.392;2023-12-20T05:57:53;100251.94;;;5.70;91.95
61478;BME280;47345;52.334;10.392;2023-12-20T06:00:24;100248.00;;;5.72;91.81
61478;BME280;47345;52.334;10.392;2023-12-20T06:02:54;100243.16;;;5.75;91.53
61478;BME280;47345;52.334;10.392;2023-12-20T06:05:25;100246.90;;;5.77;91.55
61478;BME280;47345;52.334;10.392;2023-12-20T06:07:55;100252.89;;;5.78;91.26
61478;BME280;47345;52.334;10.392;2023-12-20T06:10:30;100256.38;;;5.80;91.11
61478;BME280;47345;52.334;10.392;2023-12-20T06:13:00;100250.82;;;5.79;91.06
61478;BME280;47345;52.334;10.392;2023-12-20T06:15:32;100258.19;;;5.81;90.90
61478;BME280;47345;52.334;10.392;2023-12-20T06:18:03;100258.46;;;5.82;91.17
61478;BME280;47345;52.334;10.392;2023-12-20T06:20:33;100260.80;;;5.83;91.17
61478;BME280;47345;52.334;10.392;2023-12-20T06:23:04;100258.31;;;5.84;90.90
61478;BME280;47345;52.334;10.392;2023-12-20T06:25:34;100253.85;;;5.85;90.86
61478;BME280;47345;52.334;10.392;2023-12-20T06:28:06;100258.69;;;5.85;90.95
61478;BME280;47345;52.334;10.392;2023-12-20T06:30:37;100257.74;;;5.86;90.78
61478;BME280;47345;52.334;10.392;2023-12-20T06:33:07;100254.63;;;5.86;90.65
61478;BME280;47345;52.334;10.392;2023-12-20T06:35:39;100260.38;;;5.86;90.59
61478;BME280;47345;52.334;10.392;2023-12-20T06:38:09;100267.82;;;5.86;90.70
61478;BME280;47345;52.334;10.392;2023-12-20T06:40:39;100266.63;;;5.87;90.64
61478;BME280;47345;52.334;10.392;2023-12-20T06:43:12;100267.77;;;5.88;90.66
61478;BME280;47345;52.334;10.392;2023-12-20T06:46:01;100269.81;;;5.89;90.37
61478;BME280;47345;52.334;10.392;2023-12-20T06:48:32;100264.91;;;5.91;90.26
61478;BME280;47345;52.334;10.392;2023-12-20T06:51:03;100259.30;;;5.93;90.21
61478;BME280;47345;52.334;10.392;2023-12-20T06:53:33;100255.55;;;5.94;90.00
61478;BME280;47345;52.334;10.392;2023-12-20T06:56:04;100261.04;;;5.95;89.99
61478;BME280;47345;52.334;10.392;2023-12-20T06:58:35;100258.13;;;5.96;90.06
61478;BME280;47345;52.334;10.392;2023-12-20T07:01:06;100255.05;;;5.98;89.91
61478;BME280;47345;52.334;10.392;2023-12-20T07:03:41;100246.84;;;5.98;89.67
61478;BME280;47345;52.334;10.392;2023-12-20T07:06:11;100246.39;;;6.01;89.42
61478;BME280;47345;52.334;10.392;2023-12-20T07:08:43;100242.78;;;6.02;89.59
61478;BME280;47345;52.334;10.392;2023-12-20T07:11:13;100234.69;;;6.03;89.38
61478;BME280;47345;52.334;10.392;2023-12-20T07:13:44;100234.73;;;6.03;89.32
61478;BME280;47345;52.334;10.392;2023-12-20T07:16:14;100242.17;;;6.02;89.16
61478;BME280;47345;52.334;10.392;2023-12-20T07:18:45;100240.33;;;6.03;89.12
61478;BME280;47345;52.334;10.392;2023-12-20T07:21:16;100236.98;;;6.03;89.02
61478;BME280;47345;52.334;10.392;2023-12-20T07:23:47;100234.27;;;6.03;88.79
61478;BME280;47345;52.334;10.392;2023-12-20T07:26:18;100232.74;;;6.01;88.71
61478;BME280;47345;52.334;10.392;2023-12-20T07:28:49;100235.33;;;5.99;88.66
61478;BME280;47345;52.334;10.392;2023-12-20T07:31:19;100234.83;;;5.97;88.60
61478;BME280;47345;52.334;10.392;2023-12-20T07:33:50;100237.02;;;5.96;88.61
61478;BME280;47345;52.334;10.392;2023-12-20T07:36:22;100237.69;;;5.95;88.50
61478;BME280;47345;52.334;10.392;2023-12-20T07:38:52;100238.69;;;5.94;88.38
61478;BME280;47345;52.334;10.392;2023-12-20T07:41:22;100250.23;;;5.93;88.34
61478;BME280;47345;52.334;10.392;2023-12-20T07:43:53;100250.38;;;5.91;88.19
61478;BME280;47345;52.334;10.392;2023-12-20T07:46:23;100246.34;;;5.92;88.26
61478;BME280;47345;52.334;10.392;2023-12-20T07:48:54;100238.05;;;5.90;88.03
61478;BME280;47345;52.334;10.392;2023-12-20T07:51:24;100235.68;;;5.88;88.04
61478;BME280;47345;52.334;10.392;2023-12-20T07:53:55;100244.41;;;5.85;88.09
61478;BME280;47345;52.334;10.392;2023-12-20T07:56:25;100232.76;;;5.82;87.93
61478;BME280;47345;52.334;10.392;2023-12-20T07:58:56;100240.09;;;5.79;87.98
61478;BME280;47345;52.334;10.392;2023-12-20T08:01:29;100245.13;;;5.78;88.12
61478;BME280;47345;52.334;10.392;2023-12-20T08:03:59;100240.16;;;5.79;88.00
61478;BME280;47345;52.334;10.392;2023-12-20T08:06:30;100240.08;;;5.81;88.15
61478;BME280;47345;52.334;10.392;2023-12-20T08:09:01;100244.48;;;5.83;88.14
61478;BME280;47345;52.334;10.392;2023-12-20T08:11:35;100235.23;;;5.86;88.19
61478;BME280;47345;52.334;10.392;2023-12-20T08:14:05;100234.60;;;5.89;88.20
61478;BME280;47345;52.334;10.392;2023-12-20T08:16:36;100239.08;;;5.92;88.28
61478;BME280;47345;52.334;10.392;2023-12-20T08:19:06;100237.66;;;5.96;88.39
61478;BME280;47345;52.334;10.392;2023-12-20T08:21:37;100244.45;;;6.00;88.18
61478;BME280;47345;52.334;10.392;2023-12-20T08:24:08;100248.24;;;6.05;88.13
61478;BME280;47345;52.334;10.392;2023-12-20T08:26:39;100248.42;;;6.09;88.02
61478;BME280;47345;52.334;10.392;2023-12-20T08:29:09;100251.73;;;6.13;87.89
61478;BME280;47345;52.334;10.392;2023-12-20T08:31:39;100256.44;;;6.15;87.93
61478;BME280;47345;52.334;10.392;2023-12-20T08:34:10;100250.63;;;6.18;87.95
61478;BME280;47345;52.334;10.392;2023-12-20T08:36:42;100245.80;;;6.19;88.04
61478;BME280;47345;52.334;10.392;2023-12-20T08:39:13;100236.05;;;6.19;88.22
61478;BME280;47345;52.334;10.392;2023-12-20T08:41:44;100231.03;;;6.18;88.18
61478;BME280;47345;52.334;10.392;2023-12-20T08:44:14;100224.94;;;6.19;88.25
61478;BME280;47345;52.334;10.392;2023-12-20T08:46:45;100221.55;;;6.22;88.02
61478;BME280;47345;52.334;10.392;2023-12-20T08:49:15;100215.71;;;6.24;88.01
61478;BME280;47345;52.334;10.392;2023-12-20T08:51:46;100203.91;;;6.25;88.06
61478;BME280;47345;52.334;10.392;2023-12-20T08:54:17;100197.07;;;6.26;88.14
61478;BME280;47345;52.334;10.392;2023-12-20T08:56:48;100215.61;;;6.29;88.21
61478;BME280;47345;52.334;10.392;2023-12-20T08:59:19;100210.16;;;6.32;88.16
61478;BME280;47345;52.334;10.392;2023-12-20T09:01:50;100196.42;;;6.33;88.14
61478;BME280;47345;52.334;10.392;2023-12-20T09:04:24;100196.91;;;6.38;88.28
61478;BME280;47345;52.334;10.392;2023-12-20T09:06:54;100198.52;;;6.42;88.26
61478;BME280;47345;52.334;10.392;2023-12-20T09:09:25;100197.19;;;6.47;88.17
61478;BME280;47345;52.334;10.392;2023-12-20T09:11:55;100190.55;;;6.53;88.11
61478;BME280;47345;52.334;10.392;2023-12-20T09:14:25;100193.15;;;6.57;87.61
61478;BME280;47345;52.334;10.392;2023-12-20T09:16:56;100196.36;;;6.60;87.48
61478;BME280;47345;52.334;10.392;2023-12-20T09:19:27;100194.00;;;6.63;87.24
61478;BME280;47345;52.334;10.392;2023-12-20T09:21:57;100191.23;;;6.66;87.16
61478;BME280;47345;52.334;10.392;2023-12-20T09:24:27;100187.27;;;6.69;87.01
61478;BME280;47345;52.334;10.392;2023-12-20T09:26:58;100183.15;;;6.70;86.87
61478;BME280;47345;52.334;10.392;2023-12-20T09:29:28;100182.75;;;6.71;87.00
61478;BME280;47345;52.334;10.392;2023-12-20T09:31:59;100172.27;;;6.75;86.99
61478;BME280;47345;52.334;10.392;2023-12-20T09:34:29;100172.94;;;6.77;86.77
61478;BME280;47345;52.334;10.392;2023-12-20T09:37:00;100163.27;;;6.78;86.46
61478;BME280;47345;52.334;10.392;2023-12-20T09:39:32;100164.23;;;6.82;86.27
61478;BME280;47345;52.334;10.392;2023-12-20T09:42:04;100166.00;;;6.84;85.86
61478;BME280;47345;52.334;10.392;2023-12-20T09:44:35;100173.20;;;6.81;85.60
61478;BME280;47345;52.334;10.392;2023-12-20T09:47:06;100163.21;;;6.81;85.98
61478;BME280;47345;52.334;10.392;2023-12-20T09:49:38;100157.48;;;6.81;85.63
61478;BME280;47345;52.334;10.392;2023-12-20T09:52:09;100151.67;;;6.76;86.05
61478;BME280;47345;52.334;10.392;2023-12-20T09:54:40;100155.19;;;6.72;86.08
61478;BME280;47345;52.334;10.392;2023-12-20T09:57:12;100156.48;;;6.67;86.17
61478;BME280;47345;52.334;10.392;2023-12-20T09:59:42;100151.27;;;6.64;86.24
61478;BME280;47345;52.334;10.392;2023-12-20T10:02:14;100147.48;;;6.61;86.16
61478;BME280;47345;52.334;10.392;2023-12-20T10:04:48;100137.40;;;6.60;86.09
61478;BME280;47345;52.334;10.392;2023-12-20T10:07:18;100127.67;;;6.61;86.17
61478;BME280;47345;52.334;10.392;2023-12-20T10:09:51;100132.21;;;6.64;85.75
61478;BME280;47345;52.334;10.392;2023-12-20T10:12:24;100133.72;;;6.68;86.14
61478;BME280;47345;52.334;10.392;2023-12-20T10:14:54;100131.55;;;6.71;85.80
61478;BME280;47345;52.334;10.392;2023-12-20T10:17:28;100125.67;;;6.73;85.90
61478;BME280;47345;52.334;10.392;2023-12-20T10:19:59;100128.16;;;6.76;85.61
61478;BME280;47345;52.334;10.392;2023-12-20T10:22:30;100121.81;;;6.82;85.36
61478;BME280;47345;52.334;10.392;2023-12-20T10:25:02;100118.52;;;6.90;84.68
61478;BME280;47345;52.334;10.392;2023-12-20T10:27:33;100111.45;;;6.99;84.49
61478;BME280;47345;52.334;10.392;2023-12-20T10:30:05;100104.08;;;7.08;84.25
61478;BME280;47345;52.334;10.392;2023-12-20T10:32:36;100099.91;;;7.13;84.24
61478;BME280;47345;52.334;10.392;2023-12-20T10:35:08;100094.88;;;7.16;84.20
61478;BME280;47345;52.334;10.392;2023-12-20T10:37:39;100087.41;;;7.14;84.02
61478;BME280;47345;52.334;10.392;2023-12-20T10:40:11;100085.15;;;7.13;83.90
61478;BME280;47345;52.334;10.392;2023-12-20T10:42:43;100085.52;;;7.10;83.93
61478;BME280;47345;52.334;10.392;2023-12-20T10:45:14;100081.62;;;7.11;84.25
61478;BME280;47345;52.334;10.392;2023-12-20T10:47:47;100075.42;;;7.13;84.10
61478;BME280;47345;52.334;10.392;2023-12-20T10:50:20;100070.19;;;7.17;83.80
61478;BME280;47345;52.334;10.392;2023-12-20T10:52:52;100071.20;;;7.20;83.89
61478;BME280;47345;52.334;10.392;2023-12-20T10:55:25;100069.35;;;7.27;83.77
61478;BME280;47345;52.334;10.392;2023-12-20T10:58:02;100060.10;;;7.36;83.21
61478;BME280;47345;52.334;10.392;2023-12-20T11:00:40;100059.91;;;7.43;82.91
61478;BME280;47345;52.334;10.392;2023-12-20T11:03:13;100060.83;;;7.44;82.71
61478;BME280;47345;52.334;10.392;2023-12-20T11:05:51;100057.70;;;7.43;82.93
61478;BME280;47345;52.334;10.392;2023-12-20T11:08:28;100059.08;;;7.41;83.10
61478;BME280;47345;52.334;10.392;2023-12-20T11:11:06;100050.70;;;7.38;83.31
61478;BME280;47345;52.334;10.392;2023-12-20T11:13:43;100050.06;;;7.35;83.61
61478;BME280;47345;52.334;10.392;2023-12-20T11:16:18;100045.64;;;7.30;83.95
61478;BME280;47345;52.334;10.392;2023-12-20T11:18:51;100047.44;;;7.27;84.12
61478;BME280;47345;52.334;10.392;2023-12-20T11:21:22;100040.34;;;7.26;84.35
61478;BME280;47345;52.334;10.392;2023-12-20T11:23:53;100038.66;;;7.22;84.37
61478;BME280;47345;52.334;10.392;2023-12-20T11:26:28;100040.85;;;7.18;84.31
61478;BME280;47345;52.334;10.392;2023-12-20T11:29:31;100034.94;;;7.15;84.74
61478;BME280;47345;52.334;10.392;2023-12-20T11:32:04;100028.58;;;7.15;85.12
61478;BME280;47345;52.334;10.392;2023-12-20T11:34:57;100026.52;;;7.15;85.25
61478;BME280;47345;52.334;10.392;2023-12-20T11:37:35;100026.97;;;7.13;85.18
61478;BME280;47345;52.334;10.392;2023-12-20T11:40:06;100019.06;;;7.11;85.46
61478;BME280;47345;52.334;10.392;2023-12-20T11:42:40;100022.56;;;7.09;85.93
61478;BME280;47345;52.334;10.392;2023-12-20T11:45:13;100023.31;;;7.07;85.86
61478;BME280;47345;52.334;10.392;2023-12-20T11:47:47;100021.59;;;7.06;86.20
61478;BME280;47345;52.334;10.392;2023-12-20T11:50:20;100022.27;;;7.07;86.42
61478;BME280;47345;52.334;10.392;2023-12-20T11:52:52;100022.88;;;7.05;86.65
61478;BME280;47345;52.334;10.392;2023-12-20T11:55:24;100030.58;;;7.05;87.16
61478;BME280;47345;52.334;10.392;2023-12-20T11:57:55;100030.11;;;7.03;87.55
61478;BME280;47345;52.334;10.392;2023-12-20T12:00:26;100018.80;;;7.02;87.87
61478;BME280;47345;52.334;10.392;2023-12-20T12:03:00;100019.59;;;7.00;88.09
61478;BME280;47345;52.334;10.392;2023-12-20T12:05:33;100026.25;;;6.94;88.24
61478;BME280;47345;52.334;10.392;2023-12-20T12:08:05;100035.70;;;6.92;88.71
61478;BME280;47345;52.334;10.392;2023-12-20T12:10:37;100040.08;;;6.89;88.65
61478;BME280;47345;52.334;10.392;2023-12-20T12:13:08;100044.48;;;6.81;89.19
61478;BME280;47345;52.334;10.392;2023-12-20T12:15:39;100051.50;;;6.75;89.91
61478;BME280;47345;52.334;10.392;2023-12-20T12:18:14;100052.45;;;6.67;90.32
61478;BME280;47345;52.334;10.392;2023-12-20T12:20:45;100050.67;;;6.58;90.66
61478;BME280;47345;52.334;10.392;2023-12-20T12:23:23;100038.06;;;6.55;90.99
61478;BME280;47345;52.334;10.392;2023-12-20T12:25:54;100034.02;;;6.57;91.18
61478;BME280;47345;52.334;10.392;2023-12-20T12:28:27;100026.70;;;6.60;90.72
61478;BME280;47345;52.334;10.392;2023-12-20T12:30:59;100020.92;;;6.66;90.12
61478;BME280;47345;52.334;10.392;2023-12-20T12:33:30;100024.20;;;6.69;89.00
61478;BME280;47345;52.334;10.392;2023-12-20T12:36:01;100021.73;;;6.69;87.99
61478;BME280;47345;52.334;10.392;2023-12-20T12:38:33;100026.88;;;6.70;87.48
61478;BME280;47345;52.334;10.392;2023-12-20T12:41:04;100029.98;;;6.69;86.20
61478;BME280;47345;52.334;10.392;2023-12-20T12:43:36;100027.44;;;6.66;85.93
61478;BME280;47345;52.334;10.392;2023-12-20T12:46:07;100031.39;;;6.62;85.98
61478;BME280;47345;52.334;10.392;2023-12-20T12:48:38;100037.07;;;6.56;86.26
61478;BME280;47345;52.334;10.392;2023-12-20T12:51:12;100043.29;;;6.49;86.40
61478;BME280;47345;52.334;10.392;2023-12-20T12:53:43;100038.63;;;6.46;86.31
61478;BME280;47345;52.334;10.392;2023-12-20T12:56:14;100026.03;;;6.50;86.34
61478;BME280;47345;52.334;10.392;2023-12-20T12:58:44;100028.45;;;6.56;86.52
61478;BME280;47345;52.334;10.392;2023-12-20T13:01:15;100036.86;;;6.57;86.14
61478;BME280;47345;52.334;10.392;2023-12-20T13:03:46;100035.11;;;6.57;85.66
61478;BME280;47345;52.334;10.392;2023-12-20T13:06:16;100043.30;;;6.55;85.73
61478;BME280;47345;52.334;10.392;2023-12-20T13:08:47;100042.51;;;6.51;85.68
61478;BME280;47345;52.334;10.392;2023-12-20T13:11:17;100043.20;;;6.43;85.09